Skip Navigation LinksHome page > Tools > METAR decoder Skip Navigation Links

METAR decoder

Settings

METAR

Chicago O'Hare Intl, Chicago

For information only: do not use for flight planning or navigation.
Latest weather
Observation time Thursday, February 22, 2018 7:51 PM CST
Local time Thursday, February 22, 2018 8:31 PM CST
Flight conditions Marginal Visual Meteorological Conditions
Winds
Wind direction East (100°)
Wind speed 15 mph
Wind gusting to 21 mph
Visibility 10 mi.
Sky condition
Ceiling 1,900 ft. overcast
Cloud layer overcast 1,900 ft.
Temperature 40°F
Dewpoint 32°F
Altimeter 30.35 in.Hg
Derived measurements
Relative humidity 73%
Wind chill 32°F
Density altitude -1014 ft.
Sea-level pressure 30.37 in.Hg
Remarks
Automated weather observing station with precipitation discriminator.
Pressure falling rapidly.
METAR KORD 230151Z 10013G18KT 10SM OVC019 04/00 A3035 RMK AO2 PRESFR SLP284 T00440000

InnerDrive.Weather 4.0.6615.0 Release CLR 4.0.30319.42000
Copyright ©2018 Inner Drive Technology. All rights reserved. Portions Copyright ©1986-2018 David Braverman.

Find weather

Site navigation


Skip Navigation Links

Place info

Page info

PayPal - The safer, easier way to pay online!

Return home.

Copyright ©2018 Inner Drive Technology. Purveyors of fine, hand-crafted computer software. Page printed 2018-02-23T02:31:27 UTC.